Burgas, Bulgaria
Current Conditions -  °F | °C
As of 1:00 AM on Sunday 26 Oct 2014 (Local Time) from LBBG Reporting Station
Light Rain Light Rain  
Wind Chill: 32°   Ceiling: 2500
Heat Index: 43°   Visibility: 6mi
Dew Point: 39°   Wind: 29mph
Humidity: 87%   Direction: 10°N
Pressure: 30.03"   Gusts: 43mph
Location:  42.51°N, 27.47°E
Report Text: LBBG 252200Z 01013G19MPS 9999 -RA SCT010 BKN025 OVC037 06/04 Q1017 REDZ R99/291060 NOSIG
Loading
Personal Weather Stations






























Interactive Weather Map
Tropical Storm Tracking
New forecast layout! Learn more

10-Day Weather Forecast

Advertisements
Track Severe Weather on mobile